createdAt,value
2023-02-19T00:00:01.503Z,3.70
2023-02-19T00:02:32.317Z,3.70
2023-02-19T00:05:00.253Z,4.00
2023-02-19T00:07:27.389Z,4.00
2023-02-19T00:09:54.595Z,4.00
2023-02-19T00:12:21.862Z,4.00
2023-02-19T00:14:49.080Z,4.10
2023-02-19T00:17:16.560Z,4.00
2023-02-19T00:19:43.686Z,4.10
2023-02-19T00:22:11.180Z,4.20
2023-02-19T00:24:38.438Z,4.00
2023-02-19T00:27:05.557Z,4.20
2023-02-19T00:29:32.838Z,4.10
2023-02-19T00:32:00.253Z,4.00
2023-02-19T00:34:27.533Z,4.10
2023-02-19T00:36:55.704Z,4.00
2023-02-19T00:39:23.092Z,3.80
2023-02-19T00:41:50.577Z,3.90
2023-02-19T00:44:20.143Z,4.00
2023-02-19T00:46:50.560Z,4.10
2023-02-19T00:49:21.300Z,4.10
2023-02-19T00:51:49.260Z,4.00
2023-02-19T00:54:16.694Z,4.10
2023-02-19T00:56:47.128Z,3.90
2023-02-19T00:59:14.987Z,3.90
2023-02-19T01:01:44.466Z,4.20
2023-02-19T01:04:11.980Z,4.00
2023-02-19T01:06:39.313Z,4.10
2023-02-19T01:09:07.968Z,3.90
2023-02-19T01:11:35.253Z,4.10
2023-02-19T01:14:03.721Z,4.00
2023-02-19T01:16:31.313Z,4.00
2023-02-19T01:18:59.471Z,4.00
2023-02-19T01:21:28.644Z,4.00
2023-02-19T01:23:57.333Z,4.10
2023-02-19T01:26:27.210Z,4.10
2023-02-19T01:28:54.729Z,4.00
2023-02-19T01:31:23.471Z,3.90
2023-02-19T01:33:56.043Z,4.00
2023-02-19T01:36:23.719Z,4.00
2023-02-19T01:38:51.126Z,3.90
2023-02-19T01:41:21.886Z,3.80
2023-02-19T01:44:08.202Z,4.10
2023-02-19T01:46:37.512Z,3.80
2023-02-19T01:49:09.725Z,3.90
2023-02-19T01:51:41.556Z,3.80
2023-02-19T01:54:12.669Z,4.00
2023-02-19T01:56:43.021Z,3.80
2023-02-19T01:59:10.465Z,3.90
2023-02-19T02:01:41.514Z,3.70
2023-02-19T02:04:13.120Z,3.80
2023-02-19T02:06:49.339Z,3.60
2023-02-19T02:09:37.514Z,3.40
2023-02-19T02:12:04.935Z,3.50
2023-02-19T02:14:39.194Z,3.40
2023-02-19T02:17:14.301Z,3.10
2023-02-19T02:19:50.855Z,3.30
2023-02-19T02:23:04.727Z,3.30
2023-02-19T02:26:25.299Z,3.40
2023-02-19T02:29:31.821Z,3.30
2023-02-19T02:32:24.359Z,3.40
2023-02-19T02:34:58.370Z,3.40
2023-02-19T02:37:28.590Z,3.30
2023-02-19T02:40:01.748Z,3.30
2023-02-19T02:42:29.851Z,3.50
2023-02-19T02:45:17.260Z,3.50
2023-02-19T02:47:55.006Z,3.40
2023-02-19T02:50:58.575Z,3.50
2023-02-19T02:54:06.987Z,3.20
2023-02-19T02:56:35.886Z,3.40
2023-02-19T02:59:08.400Z,3.50
2023-02-19T03:02:18.990Z,3.50
2023-02-19T03:05:21.166Z,3.50
2023-02-19T03:07:57.003Z,3.60
2023-02-19T03:10:29.243Z,3.40
2023-02-19T03:13:17.599Z,3.40
2023-02-19T03:16:13.425Z,3.30
2023-02-19T03:19:01.616Z,3.30
2023-02-19T03:21:29.395Z,3.20
2023-02-19T03:24:16.300Z,3.30
2023-02-19T03:26:46.113Z,3.20
2023-02-19T03:29:26.553Z,3.40
2023-02-19T03:32:09.096Z,3.30
2023-02-19T03:34:45.312Z,3.30
2023-02-19T03:37:22.636Z,3.30
2023-02-19T03:39:49.645Z,3.30
2023-02-19T03:42:44.384Z,3.20
2023-02-19T03:45:25.987Z,3.40
2023-02-19T03:48:06.959Z,3.40
2023-02-19T03:50:52.821Z,3.20
2023-02-19T03:53:32.842Z,3.10
2023-02-19T03:56:16.149Z,3.30
2023-02-19T03:59:01.959Z,3.30
2023-02-19T04:01:54.092Z,3.20
2023-02-19T04:04:37.656Z,3.10
2023-02-19T04:07:05.556Z,2.90
2023-02-19T04:09:41.366Z,2.90
2023-02-19T04:12:13.006Z,2.80
2023-02-19T04:14:49.412Z,2.90
2023-02-19T04:17:35.106Z,2.80
2023-02-19T04:20:07.617Z,2.90
2023-02-19T04:22:37.446Z,2.90
2023-02-19T04:25:04.971Z,2.70
2023-02-19T04:27:33.706Z,2.70
2023-02-19T04:30:00.861Z,2.70
2023-02-19T04:32:29.284Z,2.80
2023-02-19T04:34:56.624Z,2.90
2023-02-19T04:37:23.938Z,2.80
2023-02-19T04:39:50.883Z,2.80
2023-02-19T04:42:18.137Z,3.00
2023-02-19T04:44:45.136Z,3.00
2023-02-19T04:47:12.245Z,2.90
2023-02-19T04:49:39.442Z,2.80
2023-02-19T04:52:06.684Z,2.90
2023-02-19T04:54:33.801Z,2.80
2023-02-19T04:57:00.966Z,2.80
2023-02-19T04:59:28.556Z,2.90
2023-02-19T05:01:55.801Z,2.90
2023-02-19T05:04:23.996Z,2.80
2023-02-19T05:06:50.994Z,3.00
2023-02-19T05:09:18.302Z,2.80
2023-02-19T05:11:45.466Z,3.20
2023-02-19T05:14:12.674Z,2.90
2023-02-19T05:16:43.429Z,2.80
2023-02-19T05:19:13.973Z,3.00
2023-02-19T05:21:41.322Z,3.00
2023-02-19T05:24:09.064Z,2.90
2023-02-19T05:26:36.423Z,3.00
2023-02-19T05:29:03.938Z,3.00
2023-02-19T05:31:34.147Z,3.00
2023-02-19T05:34:01.632Z,3.00
2023-02-19T05:36:28.948Z,2.80
2023-02-19T05:38:57.447Z,3.00
2023-02-19T05:41:29.475Z,3.10
2023-02-19T05:43:57.973Z,3.00
2023-02-19T05:46:27.390Z,3.20
2023-02-19T05:48:55.029Z,3.20
2023-02-19T05:51:25.193Z,3.20
2023-02-19T05:53:56.343Z,3.20
2023-02-19T05:56:26.734Z,3.10
2023-02-19T05:58:55.192Z,3.10
2023-02-19T06:01:25.088Z,2.90
2023-02-19T06:03:52.739Z,3.00
2023-02-19T06:06:21.269Z,3.10
2023-02-19T06:08:51.906Z,3.00
2023-02-19T06:11:19.946Z,3.10
2023-02-19T06:13:47.477Z,3.10
2023-02-19T06:16:14.872Z,2.90
2023-02-19T06:18:42.075Z,3.00
2023-02-19T06:21:11.692Z,2.90
2023-02-19T06:23:39.840Z,3.00
2023-02-19T06:26:17.851Z,3.00
2023-02-19T06:28:45.679Z,3.20
2023-02-19T06:31:13.794Z,3.20
2023-02-19T06:33:42.017Z,3.20
2023-02-19T06:36:13.969Z,3.30
2023-02-19T06:38:41.659Z,3.10
2023-02-19T06:41:13.067Z,3.40
2023-02-19T06:43:43.921Z,3.30
2023-02-19T06:46:13.034Z,3.30
2023-02-19T06:48:42.226Z,3.30
2023-02-19T06:51:13.161Z,3.50
2023-02-19T06:53:42.497Z,3.90
2023-02-19T06:56:34.025Z,4.20
2023-02-19T06:59:03.190Z,4.20
2023-02-19T07:01:31.794Z,4.10
2023-02-19T07:04:03.802Z,4.30
2023-02-19T07:06:31.311Z,4.80
2023-02-19T07:09:00.082Z,5.20
2023-02-19T07:11:30.843Z,5.60
2023-02-19T07:13:59.837Z,5.90
2023-02-19T07:16:27.967Z,6.10
2023-02-19T07:18:59.241Z,6.00
2023-02-19T07:21:28.114Z,6.00
2023-02-19T07:23:55.440Z,5.90
2023-02-19T07:26:23.814Z,5.70
2023-02-19T07:28:54.517Z,5.60
2023-02-19T07:31:23.635Z,5.70
2023-02-19T07:33:51.672Z,5.90
2023-02-19T07:36:20.245Z,5.80
2023-02-19T07:38:48.144Z,5.80
2023-02-19T07:41:15.349Z,5.80
2023-02-19T07:43:42.509Z,5.70
2023-02-19T07:46:15.082Z,5.80
2023-02-19T07:48:44.777Z,5.70
2023-02-19T07:51:14.436Z,5.70
2023-02-19T07:53:41.406Z,5.60
2023-02-19T07:56:10.988Z,5.60
2023-02-19T07:58:38.683Z,5.60
2023-02-19T08:01:41.272Z,5.50
2023-02-19T08:04:08.453Z,5.60
2023-02-19T08:06:35.534Z,5.50
2023-02-19T08:09:03.586Z,5.60
2023-02-19T08:11:49.550Z,5.60
2023-02-19T08:14:17.727Z,5.50
2023-02-19T08:16:50.377Z,5.60
2023-02-19T08:19:18.553Z,5.50
2023-02-19T08:21:45.720Z,5.40
2023-02-19T08:24:12.964Z,5.30
2023-02-19T08:26:40.474Z,5.40
2023-02-19T08:29:07.994Z,5.40
2023-02-19T08:31:35.672Z,5.30
2023-02-19T08:34:03.429Z,5.10
2023-02-19T08:36:30.595Z,5.20
2023-02-19T08:38:57.855Z,5.20
2023-02-19T08:41:30.858Z,5.10
2023-02-19T08:43:58.213Z,5.20
2023-02-19T08:46:25.446Z,5.20
2023-02-19T08:48:52.576Z,5.20
2023-02-19T08:51:19.987Z,5.30
2023-02-19T08:53:47.265Z,5.30
2023-02-19T08:56:16.504Z,5.40
2023-02-19T08:58:44.109Z,5.30
2023-02-19T09:01:14.928Z,5.50
2023-02-19T09:03:42.992Z,5.30
2023-02-19T09:06:18.929Z,5.30
2023-02-19T09:08:46.462Z,5.20
2023-02-19T09:11:14.296Z,5.40
2023-02-19T09:13:42.366Z,5.20
2023-02-19T09:16:09.621Z,5.20
2023-02-19T09:18:36.898Z,5.20
2023-02-19T09:21:05.971Z,5.30
2023-02-19T09:23:37.016Z,5.20
2023-02-19T09:26:10.262Z,5.30
2023-02-19T09:28:39.846Z,5.10
2023-02-19T09:31:10.309Z,5.20
2023-02-19T09:33:37.838Z,5.20
2023-02-19T09:36:05.157Z,5.00
2023-02-19T09:38:36.012Z,5.20
2023-02-19T09:41:14.567Z,5.00
2023-02-19T09:43:43.237Z,5.10
2023-02-19T09:46:32.620Z,5.10
2023-02-19T09:49:06.722Z,5.10
2023-02-19T09:51:38.187Z,5.20
2023-02-19T09:54:11.096Z,5.20
2023-02-19T09:56:38.366Z,5.40
2023-02-19T09:59:07.369Z,5.30
2023-02-19T10:01:39.386Z,5.70
2023-02-19T10:04:07.297Z,5.70
2023-02-19T10:06:36.455Z,5.70
2023-02-19T10:09:32.080Z,5.70
2023-02-19T10:12:00.324Z,5.70
2023-02-19T10:14:43.954Z,5.90
2023-02-19T10:17:24.595Z,5.90
2023-02-19T10:19:52.881Z,6.00
2023-02-19T10:22:20.943Z,5.80
2023-02-19T10:24:53.119Z,5.80
2023-02-19T10:27:20.690Z,5.70
2023-02-19T10:29:50.299Z,5.70
2023-02-19T10:32:24.319Z,5.40
2023-02-19T10:35:12.087Z,5.50
2023-02-19T10:37:45.363Z,5.60
2023-02-19T10:40:22.568Z,5.50
2023-02-19T10:42:53.188Z,5.60
2023-02-19T10:45:47.788Z,5.50
2023-02-19T10:48:29.279Z,5.60
2023-02-19T10:51:09.783Z,5.70
2023-02-19T10:53:46.846Z,5.60
2023-02-19T10:56:25.637Z,5.50
2023-02-19T10:58:53.404Z,5.50
2023-02-19T11:01:26.084Z,5.50
2023-02-19T11:04:17.666Z,5.50
2023-02-19T11:06:45.727Z,5.70
2023-02-19T11:09:40.518Z,5.80
2023-02-19T11:12:11.418Z,5.90
2023-02-19T11:14:46.052Z,6.20
2023-02-19T11:17:28.860Z,6.30
2023-02-19T11:19:59.955Z,6.20
2023-02-19T11:22:32.348Z,6.30
2023-02-19T11:25:06.201Z,6.20
2023-02-19T11:27:33.554Z,6.20
2023-02-19T11:30:33.929Z,6.10
2023-02-19T11:33:20.081Z,5.90
2023-02-19T11:35:47.580Z,5.60
2023-02-19T11:38:16.670Z,5.60
2023-02-19T11:41:04.949Z,5.50
2023-02-19T11:44:05.289Z,5.20
2023-02-19T11:47:02.813Z,5.30
2023-02-19T11:50:02.272Z,5.20
2023-02-19T11:52:42.052Z,5.20
2023-02-19T11:55:24.309Z,5.30
2023-02-19T11:58:29.987Z,5.20
2023-02-19T12:01:03.115Z,5.30
2023-02-19T12:03:48.005Z,5.30
2023-02-19T12:06:27.900Z,5.30
2023-02-19T12:09:21.462Z,4.90
2023-02-19T12:12:00.673Z,4.90
2023-02-19T12:14:56.819Z,4.80
2023-02-19T12:17:43.111Z,4.80
2023-02-19T12:20:44.273Z,4.70
2023-02-19T12:23:32.850Z,4.70
2023-02-19T12:26:18.936Z,4.70
2023-02-19T12:28:53.811Z,5.00
2023-02-19T12:31:41.356Z,5.00
2023-02-19T12:34:23.821Z,4.90
2023-02-19T12:37:12.844Z,4.90
2023-02-19T12:39:52.054Z,4.70
2023-02-19T12:42:37.540Z,4.50
2023-02-19T12:45:17.513Z,4.50
2023-02-19T12:48:10.873Z,4.40
2023-02-19T12:50:40.591Z,4.20
2023-02-19T12:53:58.939Z,4.10
2023-02-19T12:56:36.756Z,4.10
2023-02-19T12:59:16.782Z,4.10
2023-02-19T13:01:50.973Z,4.10
2023-02-19T13:04:38.652Z,4.20
2023-02-19T13:07:09.862Z,4.10
2023-02-19T13:09:44.475Z,4.10
2023-02-19T13:12:39.080Z,4.00
2023-02-19T13:15:32.753Z,4.00
2023-02-19T13:18:05.225Z,4.20
2023-02-19T13:20:40.468Z,4.10
2023-02-19T13:23:52.211Z,4.20
2023-02-19T13:27:02.858Z,4.10
2023-02-19T13:29:51.378Z,4.00
2023-02-19T13:32:37.882Z,4.10
2023-02-19T13:35:29.593Z,3.70
2023-02-19T13:38:01.867Z,3.50
2023-02-19T13:40:35.656Z,3.80
2023-02-19T13:43:06.362Z,3.70
2023-02-19T13:45:48.842Z,3.70
2023-02-19T13:48:27.254Z,3.70
2023-02-19T13:51:14.348Z,3.70
2023-02-19T13:53:54.893Z,3.50
2023-02-19T13:56:34.424Z,3.50
2023-02-19T13:59:23.858Z,3.30
2023-02-19T14:01:57.180Z,3.40
2023-02-19T14:05:00.272Z,3.50
2023-02-19T14:07:27.421Z,3.40
2023-02-19T14:09:55.032Z,3.20
2023-02-19T14:12:30.907Z,3.40
2023-02-19T14:14:57.922Z,3.50
2023-02-19T14:17:24.949Z,3.30
2023-02-19T14:20:05.109Z,3.50
2023-02-19T14:22:47.712Z,3.60
2023-02-19T14:25:44.909Z,3.50
2023-02-19T14:28:24.630Z,3.70
2023-02-19T14:31:29.234Z,3.60
2023-02-19T14:34:01.559Z,3.30
2023-02-19T14:36:45.114Z,3.60
2023-02-19T14:39:31.741Z,3.50
2023-02-19T14:42:09.127Z,3.50
2023-02-19T14:45:01.205Z,3.50
2023-02-19T14:47:36.470Z,3.20
2023-02-19T14:50:08.995Z,3.50
2023-02-19T14:52:47.945Z,3.40
2023-02-19T14:55:33.126Z,3.50
2023-02-19T14:58:04.336Z,3.30
2023-02-19T15:00:37.582Z,3.30
2023-02-19T15:03:05.862Z,3.60
2023-02-19T15:06:24.816Z,3.30
2023-02-19T15:08:57.581Z,3.60
2023-02-19T15:11:27.303Z,3.30
2023-02-19T15:14:01.411Z,3.50
2023-02-19T15:16:30.436Z,3.60
2023-02-19T15:18:59.219Z,3.50
2023-02-19T15:21:32.485Z,3.40
2023-02-19T15:24:09.366Z,3.30
2023-02-19T15:26:43.394Z,3.40
2023-02-19T15:29:13.324Z,3.40
2023-02-19T15:31:53.523Z,3.30
2023-02-19T15:34:23.771Z,3.40
2023-02-19T15:36:55.792Z,3.40
2023-02-19T15:39:24.263Z,3.20
2023-02-19T15:42:02.753Z,3.30
2023-02-19T15:44:40.154Z,3.30
2023-02-19T15:47:33.459Z,3.30
2023-02-19T15:50:09.614Z,3.30
2023-02-19T15:52:49.883Z,3.40
2023-02-19T15:55:40.954Z,3.30
2023-02-19T15:58:17.366Z,3.10
2023-02-19T16:01:20.251Z,3.20
2023-02-19T16:03:47.980Z,3.20
2023-02-19T16:06:17.043Z,3.30
2023-02-19T16:09:02.226Z,3.10
2023-02-19T16:11:31.221Z,3.10
2023-02-19T16:14:34.597Z,3.20
2023-02-19T16:17:17.263Z,3.30
2023-02-19T16:19:53.098Z,3.10
2023-02-19T16:22:23.178Z,3.20
2023-02-19T16:24:57.564Z,3.20
2023-02-19T16:27:40.027Z,3.30
2023-02-19T16:30:09.146Z,3.30
2023-02-19T16:32:38.695Z,3.20
2023-02-19T16:35:27.811Z,3.10
2023-02-19T16:37:59.393Z,3.20
2023-02-19T16:40:54.344Z,3.20
2023-02-19T16:43:31.602Z,3.20
2023-02-19T16:46:00.265Z,3.10
2023-02-19T16:48:33.734Z,3.10
2023-02-19T16:51:01.568Z,3.30
2023-02-19T16:53:29.479Z,3.00
2023-02-19T16:55:57.216Z,3.20
2023-02-19T16:58:29.222Z,3.20
2023-02-19T17:00:59.170Z,3.20
2023-02-19T17:03:26.485Z,3.10
2023-02-19T17:05:53.868Z,3.10
2023-02-19T17:08:37.128Z,3.10
2023-02-19T17:11:07.718Z,3.00
2023-02-19T17:13:34.840Z,2.90
2023-02-19T17:16:02.476Z,3.00
2023-02-19T17:18:30.057Z,2.90
2023-02-19T17:21:04.794Z,3.00
2023-02-19T17:23:32.117Z,3.10
2023-02-19T17:25:59.250Z,3.10
2023-02-19T17:28:26.608Z,3.10
2023-02-19T17:30:56.763Z,3.20
2023-02-19T17:33:24.323Z,3.10
2023-02-19T17:35:54.551Z,3.10
2023-02-19T17:38:22.219Z,3.30
2023-02-19T17:40:52.156Z,3.30
2023-02-19T17:43:25.574Z,3.20
2023-02-19T17:45:53.138Z,3.10
2023-02-19T17:48:20.555Z,3.00
2023-02-19T17:50:49.598Z,3.00
2023-02-19T17:53:19.305Z,3.00
2023-02-19T17:55:47.088Z,3.00
2023-02-19T17:58:15.234Z,3.10
2023-02-19T18:00:42.339Z,2.80
2023-02-19T18:03:10.667Z,2.90
2023-02-19T18:05:37.850Z,2.90
2023-02-19T18:08:05.032Z,2.80
2023-02-19T18:10:32.425Z,2.90
2023-02-19T18:12:59.737Z,2.90
2023-02-19T18:15:27.544Z,2.90
2023-02-19T18:17:55.898Z,2.70
2023-02-19T18:20:31.311Z,2.60
2023-02-19T18:22:59.069Z,2.80
2023-02-19T18:25:26.807Z,2.90
2023-02-19T18:27:56.898Z,3.00
2023-02-19T18:30:24.326Z,3.10
2023-02-19T18:32:52.184Z,2.80
2023-02-19T18:35:20.557Z,2.80
2023-02-19T18:37:54.971Z,3.00
2023-02-19T18:40:26.170Z,3.10
2023-02-19T18:42:54.020Z,3.00
2023-02-19T18:45:21.558Z,3.00
2023-02-19T18:47:50.397Z,3.00
2023-02-19T18:50:19.518Z,3.00
2023-02-19T18:52:47.310Z,3.00
2023-02-19T18:55:14.882Z,2.90
2023-02-19T18:57:42.357Z,3.00
2023-02-19T19:00:10.400Z,2.90
2023-02-19T19:02:48.715Z,3.10
2023-02-19T19:05:23.818Z,3.10
2023-02-19T19:07:55.636Z,2.90
2023-02-19T19:10:25.622Z,3.00
2023-02-19T19:12:55.361Z,2.90
2023-02-19T19:15:23.737Z,3.00
2023-02-19T19:17:51.606Z,2.90
2023-02-19T19:20:20.857Z,2.90
2023-02-19T19:22:55.337Z,3.00
2023-02-19T19:25:25.568Z,2.90
2023-02-19T19:27:58.663Z,2.90
2023-02-19T19:30:25.907Z,3.00
2023-02-19T19:32:53.922Z,2.90
2023-02-19T19:35:22.231Z,2.90
2023-02-19T19:37:50.218Z,2.90
2023-02-19T19:40:18.898Z,3.10
2023-02-19T19:42:46.515Z,3.00
2023-02-19T19:45:14.351Z,2.90
2023-02-19T19:47:42.468Z,2.80
2023-02-19T19:50:10.881Z,3.10
2023-02-19T19:52:40.601Z,3.00
2023-02-19T19:55:08.041Z,2.90
2023-02-19T19:57:35.201Z,3.00
2023-02-19T20:00:03.314Z,2.90
2023-02-19T20:02:31.391Z,2.90
2023-02-19T20:04:59.206Z,2.80
2023-02-19T20:07:28.477Z,2.90
2023-02-19T20:09:55.550Z,3.00
2023-02-19T20:12:22.708Z,3.00
2023-02-19T20:14:52.910Z,2.90
2023-02-19T20:17:20.069Z,2.80
2023-02-19T20:19:47.226Z,2.80
2023-02-19T20:22:15.390Z,2.80
2023-02-19T20:24:42.628Z,2.70
2023-02-19T20:27:10.318Z,2.80
2023-02-19T20:29:40.435Z,2.80
2023-02-19T20:32:11.524Z,2.70
2023-02-19T20:34:46.491Z,2.60
2023-02-19T20:37:18.464Z,2.70
2023-02-19T20:39:45.919Z,2.60
2023-02-19T20:42:16.698Z,2.70
2023-02-19T20:44:44.766Z,2.60
2023-02-19T20:47:13.672Z,2.60
2023-02-19T20:49:45.758Z,2.60
2023-02-19T20:52:17.852Z,2.60
2023-02-19T20:54:45.342Z,2.70
2023-02-19T20:57:13.294Z,2.80
2023-02-19T20:59:41.335Z,2.60
2023-02-19T21:02:17.677Z,2.70
2023-02-19T21:04:44.848Z,2.70
2023-02-19T21:07:12.048Z,2.80
2023-02-19T21:09:39.463Z,2.80
2023-02-19T21:12:06.717Z,2.80
2023-02-19T21:14:34.030Z,2.60
2023-02-19T21:17:01.431Z,2.80
2023-02-19T21:19:28.562Z,2.80
2023-02-19T21:21:55.618Z,2.90
2023-02-19T21:24:22.819Z,3.00
2023-02-19T21:26:50.092Z,2.80
2023-02-19T21:29:19.991Z,3.00
2023-02-19T21:31:54.773Z,3.10
2023-02-19T21:34:25.033Z,3.00
2023-02-19T21:36:53.257Z,3.10
2023-02-19T21:39:22.596Z,3.30
2023-02-19T21:41:50.388Z,3.10
2023-02-19T21:44:18.919Z,3.10
2023-02-19T21:46:48.018Z,3.30
2023-02-19T21:49:15.252Z,3.20
2023-02-19T21:51:44.292Z,3.30
2023-02-19T21:54:24.775Z,3.10
2023-02-19T21:56:53.266Z,3.30
2023-02-19T21:59:23.738Z,3.20
2023-02-19T22:01:51.333Z,3.00
2023-02-19T22:04:20.488Z,3.30
2023-02-19T22:06:48.151Z,3.20
2023-02-19T22:09:17.821Z,3.20
2023-02-19T22:11:45.012Z,3.20
2023-02-19T22:14:12.289Z,3.20
2023-02-19T22:16:39.578Z,3.20
2023-02-19T22:19:06.832Z,3.20
2023-02-19T22:21:34.134Z,3.40
2023-02-19T22:24:03.206Z,3.30
2023-02-19T22:26:33.070Z,3.20
2023-02-19T22:29:07.572Z,3.10
2023-02-19T22:31:35.782Z,3.30
2023-02-19T22:34:03.328Z,3.20
2023-02-19T22:36:31.539Z,3.30
2023-02-19T22:39:02.138Z,3.30
2023-02-19T22:41:29.584Z,3.20
2023-02-19T22:43:58.812Z,3.30
2023-02-19T22:46:32.334Z,3.20
2023-02-19T22:49:04.579Z,3.30
2023-02-19T22:51:32.356Z,3.30
2023-02-19T22:54:00.457Z,3.30
2023-02-19T22:56:28.806Z,3.40
2023-02-19T22:58:57.572Z,3.30
2023-02-19T23:01:25.505Z,3.30
2023-02-19T23:03:56.514Z,3.10
2023-02-19T23:06:34.827Z,3.30
2023-02-19T23:12:07.202Z,3.10
2023-02-19T23:14:34.816Z,3.20
2023-02-19T23:17:02.516Z,3.30
2023-02-19T23:19:33.267Z,3.30
2023-02-19T23:22:03.234Z,3.20
2023-02-19T23:24:30.468Z,3.40
2023-02-19T23:26:57.973Z,3.30
2023-02-19T23:29:27.230Z,3.30
2023-02-19T23:31:55.139Z,3.50
2023-02-19T23:34:24.463Z,3.40
2023-02-19T23:36:52.273Z,3.50
2023-02-19T23:39:21.613Z,3.40
2023-02-19T23:41:57.112Z,3.40
2023-02-19T23:44:25.403Z,3.30
2023-02-19T23:46:52.882Z,3.30
2023-02-19T23:49:20.331Z,3.50
2023-02-19T23:51:47.640Z,3.40
2023-02-19T23:54:15.896Z,3.40
2023-02-19T23:56:43.233Z,3.50
2023-02-19T23:59:10.355Z,3.40
